createdAt,value
2019-05-02T00:03:21.004Z,98287.75
2019-05-02T00:08:24.329Z,98280.14
2019-05-02T00:13:27.621Z,98277.96
2019-05-02T00:18:31.947Z,98283.69
2019-05-02T00:23:36.290Z,98281.20
2019-05-02T00:28:43.005Z,98267.95
2019-05-02T00:33:44.669Z,98267.64
2019-05-02T00:38:47.976Z,98257.64
2019-05-02T00:43:51.269Z,98254.41
2019-05-02T00:48:59.770Z,98251.69
2019-05-02T00:54:01.360Z,98254.98
2019-05-02T00:59:07.472Z,98245.19
2019-05-02T01:04:11.410Z,98236.55
2019-05-02T01:09:14.711Z,98231.64
2019-05-02T01:14:18.077Z,98222.99
2019-05-02T01:19:21.491Z,98218.09
2019-05-02T01:24:24.789Z,98221.05
2019-05-02T01:29:38.517Z,98215.64
2019-05-02T01:34:43.465Z,98217.21
2019-05-02T01:39:46.761Z,98210.13
2019-05-02T01:44:50.102Z,98203.66
2019-05-02T01:49:57.230Z,98203.45
2019-05-02T01:54:58.494Z,98185.22
2019-05-02T02:00:04.236Z,98185.75
2019-05-02T02:05:07.241Z,98178.70
2019-05-02T02:10:14.996Z,98167.34
2019-05-02T02:15:15.637Z,98171.67
2019-05-02T02:20:23.017Z,98164.63
2019-05-02T02:25:36.292Z,98161.36
2019-05-02T02:30:39.681Z,98158.38
2019-05-02T02:35:49.774Z,98152.66
2019-05-02T02:40:48.057Z,98150.25
2019-05-02T02:45:57.601Z,98156.50
2019-05-02T02:50:58.030Z,98151.77
2019-05-02T02:56:03.831Z,98143.89
2019-05-02T03:01:07.557Z,98144.25
2019-05-02T03:06:10.870Z,98150.59
2019-05-02T03:11:22.367Z,98151.33
2019-05-02T03:16:22.512Z,98149.23
2019-05-02T03:21:25.846Z,98148.27
2019-05-02T03:26:29.171Z,98147.41
2019-05-02T03:31:32.478Z,98151.25
2019-05-02T03:36:37.220Z,98152.05
2019-05-02T03:41:40.749Z,98153.95
2019-05-02T03:46:44.083Z,98153.12
2019-05-02T03:51:47.434Z,98158.24
2019-05-02T03:56:51.595Z,98149.28
2019-05-02T04:01:55.820Z,98152.98
2019-05-02T04:07:01.107Z,98154.52
2019-05-02T04:12:04.345Z,98158.19
2019-05-02T04:17:07.687Z,98158.24
2019-05-02T04:22:11.918Z,98149.87
2019-05-02T04:27:15.499Z,98149.23
2019-05-02T04:32:18.844Z,98147.02
2019-05-02T04:37:22.144Z,98146.63
2019-05-02T04:42:25.458Z,98139.25
2019-05-02T04:47:29.192Z,98143.83
2019-05-02T04:52:40.735Z,98151.19
2019-05-02T04:57:46.774Z,98155.48
2019-05-02T05:02:42.655Z,98157.11
2019-05-02T05:07:46.688Z,98163.19
2019-05-02T05:12:51.052Z,98163.04
2019-05-02T05:17:54.389Z,98163.33
2019-05-02T05:22:58.177Z,98169.44
2019-05-02T05:28:05.822Z,98161.31
2019-05-02T05:33:07.584Z,98163.05
2019-05-02T05:38:11.622Z,98163.41
2019-05-02T05:43:17.987Z,98163.27
2019-05-02T05:48:19.966Z,98162.06
2019-05-02T05:53:24.597Z,98160.67
2019-05-02T05:58:28.471Z,98155.99
2019-05-02T06:03:34.048Z,98150.41
2019-05-02T06:08:37.103Z,98156.08
2019-05-02T06:13:43.029Z,98157.30
2019-05-02T06:18:45.624Z,98152.05
2019-05-02T06:23:48.922Z,98151.63
2019-05-02T06:28:52.249Z,98146.42
2019-05-02T06:33:55.560Z,98150.02
2019-05-02T06:38:58.935Z,98150.64
2019-05-02T06:44:02.256Z,98142.34
2019-05-02T06:49:05.660Z,98145.71
2019-05-02T06:54:09.046Z,98129.55
2019-05-02T06:59:13.188Z,98128.56
2019-05-02T07:04:22.715Z,98109.53
2019-05-02T07:09:22.737Z,98118.98
2019-05-02T07:14:26.168Z,98114.06
2019-05-02T07:19:32.271Z,98114.72
2019-05-02T07:24:35.579Z,98113.34
2019-05-02T07:29:38.881Z,98112.51
2019-05-02T07:34:44.256Z,98110.55
2019-05-02T07:39:47.240Z,98107.11
2019-05-02T07:44:50.571Z,98119.64
2019-05-02T07:49:53.922Z,98112.63
2019-05-02T07:55:01.152Z,98112.37
2019-05-02T08:00:02.790Z,98106.56
2019-05-02T08:05:08.734Z,98114.36
2019-05-02T08:10:11.404Z,98116.25
2019-05-02T08:15:15.276Z,98117.87
2019-05-02T08:20:19.566Z,98113.61
2019-05-02T08:25:23.725Z,98110.78
2019-05-02T08:30:28.720Z,98108.11
2019-05-02T08:35:32.071Z,98108.11
2019-05-02T08:40:35.412Z,98110.10
2019-05-02T08:45:39.633Z,98112.73
2019-05-02T08:50:42.921Z,98112.00
2019-05-02T08:55:46.739Z,98115.60
2019-05-02T09:00:50.161Z,98103.77
2019-05-02T09:06:05.328Z,98109.23
2019-05-02T09:10:59.109Z,98109.49
2019-05-02T09:16:05.571Z,98113.86
2019-05-02T09:21:07.465Z,98101.20
2019-05-02T09:26:11.934Z,98103.37
2019-05-02T09:31:15.844Z,98093.47
2019-05-02T09:36:19.177Z,98091.03
2019-05-02T09:41:26.938Z,98083.67
2019-05-02T09:46:27.587Z,98088.19
2019-05-02T09:51:32.463Z,98081.86
2019-05-02T09:56:35.927Z,98071.47
2019-05-02T10:01:42.111Z,98069.38
2019-05-02T10:06:45.701Z,98073.63
2019-05-02T10:11:49.066Z,98065.36
2019-05-02T10:16:53.060Z,98050.92
2019-05-02T10:21:56.531Z,98054.20
2019-05-02T10:27:04.144Z,98047.50
2019-05-02T10:32:07.557Z,98045.70
2019-05-02T10:37:09.886Z,98039.11
2019-05-02T10:42:13.212Z,98034.66
2019-05-02T10:47:16.562Z,98040.05
2019-05-02T10:52:21.696Z,98021.28
2019-05-02T10:57:24.906Z,98028.22
2019-05-02T11:02:29.871Z,98015.22
2019-05-02T11:07:33.165Z,98008.81
2019-05-02T11:12:44.068Z,98014.42
2019-05-02T11:17:47.135Z,98005.92
2019-05-02T11:22:52.632Z,97998.16
2019-05-02T11:27:57.333Z,97992.73
2019-05-02T11:33:02.884Z,97989.72
2019-05-02T11:38:05.579Z,97997.59
2019-05-02T11:43:08.858Z,97989.80
2019-05-02T11:48:13.994Z,97984.78
2019-05-02T11:53:28.861Z,97984.18
2019-05-02T11:58:22.978Z,97977.63
2019-05-02T12:03:42.995Z,97982.00
2019-05-02T12:08:49.365Z,97976.53
2019-05-02T12:13:54.798Z,97983.84
2019-05-02T12:19:08.480Z,97978.98
2019-05-02T12:24:02.241Z,97977.29
2019-05-02T12:29:05.759Z,97971.30
2019-05-02T12:34:09.152Z,97974.47
2019-05-02T12:39:12.724Z,97972.16
2019-05-02T12:44:16.010Z,97975.83
2019-05-02T12:49:25.325Z,97986.73
2019-05-02T12:54:24.366Z,97980.49
2019-05-02T12:59:27.693Z,97979.06
2019-05-02T13:04:32.253Z,97974.58
2019-05-02T13:09:35.607Z,97969.84
2019-05-02T13:14:39.026Z,97964.25
2019-05-02T13:19:55.803Z,97956.77
2019-05-02T13:24:54.176Z,97948.06
2019-05-02T13:29:54.271Z,97948.09
2019-05-02T13:35:02.330Z,97935.14
2019-05-02T13:40:11.965Z,97946.22
2019-05-02T13:45:22.876Z,97936.91
2019-05-02T13:50:26.281Z,97940.88
2019-05-02T13:55:33.737Z,97930.09
2019-05-02T14:00:48.083Z,97927.51
2019-05-02T14:05:53.790Z,97918.23
2019-05-02T14:11:06.779Z,97913.35
2019-05-02T14:16:12.095Z,97912.51
2019-05-02T14:21:15.323Z,97914.11
2019-05-02T14:26:29.581Z,97917.72
2019-05-02T14:31:23.927Z,97903.55
2019-05-02T14:36:27.344Z,97905.58
2019-05-02T14:41:38.930Z,97911.05
2019-05-02T14:46:39.375Z,97906.50
2019-05-02T14:51:41.789Z,97905.05
2019-05-02T14:56:49.737Z,97908.26
2019-05-02T15:01:57.899Z,97904.52
2019-05-02T15:07:01.901Z,97904.26
2019-05-02T15:12:13.897Z,97908.79
2019-05-02T15:17:11.986Z,97913.28
2019-05-02T15:22:14.992Z,97913.44
2019-05-02T15:27:18.324Z,97911.96
2019-05-02T15:32:25.421Z,97903.19
2019-05-02T15:37:29.139Z,97904.19
2019-05-02T15:42:32.470Z,97909.09
2019-05-02T15:47:41.117Z,97903.00
2019-05-02T15:52:42.778Z,97907.89
2019-05-02T15:57:48.018Z,97904.67
2019-05-02T16:02:51.709Z,97905.83
2019-05-02T16:08:05.397Z,97903.25
2019-05-02T16:13:00.726Z,97898.24
2019-05-02T16:18:05.344Z,97897.17
2019-05-02T16:23:08.749Z,97893.66
2019-05-02T16:28:12.691Z,97889.89
2019-05-02T16:33:19.759Z,97895.81
2019-05-02T16:38:22.230Z,97882.08
2019-05-02T16:43:27.590Z,97888.68
2019-05-02T16:48:37.425Z,97882.16
2019-05-02T16:53:35.976Z,97881.75
2019-05-02T16:58:45.310Z,97877.58
2019-05-02T17:03:44.560Z,97882.15
2019-05-02T17:08:57.366Z,97878.17
2019-05-02T17:13:57.622Z,97876.30
2019-05-02T17:19:01.676Z,97875.30
2019-05-02T17:24:05.170Z,97881.34
2019-05-02T17:29:08.530Z,97889.06
2019-05-02T17:34:14.651Z,97886.15
2019-05-02T17:39:18.798Z,97894.00
2019-05-02T17:44:24.472Z,97886.86
2019-05-02T17:49:34.800Z,97887.01
2019-05-02T17:54:32.357Z,97889.42
2019-05-02T17:59:37.575Z,97882.08
2019-05-02T18:04:41.920Z,97880.06
2019-05-02T18:09:45.362Z,97883.74
2019-05-02T18:14:52.536Z,97878.61
2019-05-02T18:19:56.763Z,97884.96
2019-05-02T18:24:58.833Z,97894.72
2019-05-02T18:30:02.387Z,97885.47
2019-05-02T18:35:06.445Z,97886.45
2019-05-02T18:40:11.769Z,97881.03
2019-05-02T18:45:27.366Z,97883.95
2019-05-02T18:50:44.289Z,97893.20
2019-05-02T18:55:42.444Z,97895.27
2019-05-02T19:00:45.784Z,97898.91
2019-05-02T19:05:51.486Z,97901.48
2019-05-02T19:11:05.346Z,97898.41
2019-05-02T19:15:59.314Z,97884.74
2019-05-02T19:21:03.349Z,97891.09
2019-05-02T19:26:09.948Z,97894.38
2019-05-02T19:31:12.046Z,97893.41
2019-05-02T19:36:16.224Z,97897.15
2019-05-02T19:41:22.314Z,97897.67
2019-05-02T19:46:34.742Z,97900.32
2019-05-02T19:51:31.699Z,97900.84
2019-05-02T19:56:43.931Z,97897.61
2019-05-02T20:01:40.139Z,97890.73
2019-05-02T20:06:43.454Z,97892.18
2019-05-02T20:11:46.761Z,97881.80
2019-05-02T20:16:52.894Z,97877.46
2019-05-02T20:22:02.883Z,97877.73
2019-05-02T20:27:02.991Z,97872.80
2019-05-02T20:32:06.315Z,97873.00
2019-05-02T20:37:09.798Z,97862.64
2019-05-02T20:42:13.118Z,97865.25
2019-05-02T20:47:21.744Z,97851.63
2019-05-02T20:57:48.387Z,97873.25
2019-05-02T21:02:51.931Z,97875.09
2019-05-02T21:08:02.337Z,97869.67
2019-05-02T21:13:05.725Z,97869.14
2019-05-02T21:18:09.061Z,97863.72
2019-05-02T21:23:12.392Z,97862.41
2019-05-02T21:28:15.736Z,97857.55
2019-05-02T21:33:32.034Z,97860.19
2019-05-02T21:38:35.378Z,97865.30
2019-05-02T21:43:38.693Z,97866.44
2019-05-02T21:48:42.178Z,97866.97
2019-05-02T21:53:54.913Z,97867.49
2019-05-02T21:59:09.563Z,97854.47
2019-05-02T22:04:13.285Z,97861.24
2019-05-02T22:09:16.704Z,97868.58
2019-05-02T22:14:22.088Z,97867.23
2019-05-02T22:19:25.140Z,97868.58
2019-05-02T22:24:28.488Z,97869.94
2019-05-02T22:29:32.431Z,97878.59
2019-05-02T22:34:35.908Z,97893.51
2019-05-02T22:39:42.050Z,97892.16
2019-05-02T22:44:45.527Z,97891.55
2019-05-02T22:49:48.887Z,97886.96
2019-05-02T22:54:52.475Z,97887.75
2019-05-02T22:59:55.796Z,97892.05
2019-05-02T23:04:59.147Z,97899.95
2019-05-02T23:10:02.596Z,97888.80
2019-05-02T23:15:06.735Z,97890.69
2019-05-02T23:20:10.084Z,97896.11
2019-05-02T23:25:23.940Z,97894.23
2019-05-02T23:30:27.376Z,97894.60
2019-05-02T23:35:32.003Z,97892.68
2019-05-02T23:40:35.793Z,97886.20
2019-05-02T23:45:39.144Z,97900.28
2019-05-02T23:50:42.522Z,97901.11
2019-05-02T23:55:45.876Z,97902.73
